createdAt,value
2019-05-16T00:02:01.318Z,12.25
2019-05-16T00:04:30.924Z,11.30
2019-05-16T00:07:00.101Z,11.33
2019-05-16T00:09:29.250Z,11.68
2019-05-16T00:11:58.396Z,11.33
2019-05-16T00:14:28.133Z,11.95
2019-05-16T00:16:58.864Z,12.28
2019-05-16T00:19:28.810Z,11.50
2019-05-16T00:21:58.211Z,10.90
2019-05-16T00:24:29.159Z,11.22
2019-05-16T00:26:58.628Z,10.75
2019-05-16T00:29:27.807Z,11.70
2019-05-16T00:31:58.047Z,11.22
2019-05-16T00:34:27.970Z,11.40
2019-05-16T00:36:58.166Z,10.75
2019-05-16T00:39:28.148Z,11.70
2019-05-16T00:41:58.386Z,11.25
2019-05-16T00:44:28.139Z,10.60
2019-05-16T00:46:58.085Z,11.65
2019-05-16T00:49:28.165Z,10.82
2019-05-16T00:51:58.445Z,9.90
2019-05-16T00:54:27.964Z,10.88
2019-05-16T00:56:57.794Z,10.88
2019-05-16T00:59:27.672Z,10.53
2019-05-16T01:01:58.742Z,10.40
2019-05-16T01:04:28.837Z,10.25
2019-05-16T01:06:58.507Z,10.75
2019-05-16T01:09:28.999Z,9.98
2019-05-16T01:11:58.184Z,10.15
2019-05-16T01:14:28.257Z,11.22
2019-05-16T01:16:58.122Z,9.03
2019-05-16T01:19:27.863Z,10.60
2019-05-16T01:21:58.960Z,9.83
2019-05-16T01:24:29.234Z,9.55
2019-05-16T01:26:58.724Z,9.85
2019-05-16T01:29:28.270Z,9.83
2019-05-16T01:31:59.061Z,9.35
2019-05-16T01:34:28.531Z,9.65
2019-05-16T01:36:59.013Z,9.93
2019-05-16T01:39:28.828Z,10.10
2019-05-16T01:41:58.677Z,9.00
2019-05-16T01:44:28.785Z,9.35
2019-05-16T01:46:58.572Z,9.23
2019-05-16T01:49:28.072Z,9.48
2019-05-16T01:51:57.856Z,9.20
2019-05-16T01:54:28.289Z,9.00
2019-05-16T01:56:59.471Z,9.28
2019-05-16T01:59:28.549Z,8.93
2019-05-16T02:02:00.674Z,9.60
2019-05-16T02:04:28.774Z,9.53
2019-05-16T02:06:58.577Z,9.00
2019-05-16T02:09:28.520Z,9.33
2019-05-16T02:11:58.888Z,9.20
2019-05-16T02:14:28.425Z,9.43
2019-05-16T02:16:58.106Z,9.00
2019-05-16T02:19:28.058Z,8.58
2019-05-16T02:21:59.631Z,8.10
2019-05-16T02:24:28.534Z,8.85
2019-05-16T02:26:58.877Z,9.10
2019-05-16T02:29:29.840Z,8.68
2019-05-16T02:32:01.962Z,9.23
2019-05-16T02:34:30.768Z,8.30
2019-05-16T02:37:18.337Z,8.80
2019-05-16T02:39:31.092Z,8.15
2019-05-16T02:42:01.121Z,8.43
2019-05-16T02:44:31.749Z,8.35
2019-05-16T02:47:01.841Z,8.80
2019-05-16T02:49:34.154Z,7.87
2019-05-16T02:52:02.361Z,8.55
2019-05-16T02:54:31.755Z,8.50
2019-05-16T02:57:01.571Z,8.25
2019-05-16T02:59:31.035Z,8.00
2019-05-16T03:02:01.086Z,7.67
2019-05-16T03:04:30.816Z,7.95
2019-05-16T03:07:00.814Z,7.47
2019-05-16T03:09:31.221Z,8.33
2019-05-16T03:12:02.203Z,8.50
2019-05-16T03:14:32.402Z,8.05
2019-05-16T03:17:03.874Z,8.45
2019-05-16T03:19:35.663Z,8.53
2019-05-16T03:22:06.793Z,7.90
2019-05-16T03:24:35.941Z,8.18
2019-05-16T03:27:05.063Z,8.68
2019-05-16T03:29:34.201Z,7.85
2019-05-16T03:32:03.701Z,7.55
2019-05-16T03:34:34.426Z,8.10
2019-05-16T03:37:04.916Z,8.10
2019-05-16T03:39:34.602Z,7.80
2019-05-16T03:42:03.772Z,8.35
2019-05-16T03:44:32.910Z,8.35
2019-05-16T03:47:02.046Z,9.10
2019-05-16T03:49:31.924Z,8.60
2019-05-16T03:52:01.712Z,8.15
2019-05-16T03:54:31.653Z,10.45
2019-05-16T03:57:00.912Z,8.83
2019-05-16T03:59:31.485Z,8.25
2019-05-16T04:02:01.677Z,9.18
2019-05-16T04:04:31.055Z,9.03
2019-05-16T04:07:01.416Z,9.88
2019-05-16T04:09:31.537Z,9.50
2019-05-16T04:12:02.121Z,9.30
2019-05-16T04:14:31.284Z,9.80
2019-05-16T04:17:03.391Z,9.50
2019-05-16T04:19:32.561Z,10.70
2019-05-16T04:22:01.715Z,9.80
2019-05-16T04:24:31.596Z,10.63
2019-05-16T04:27:01.239Z,10.13
2019-05-16T04:29:31.721Z,9.73
2019-05-16T04:32:01.849Z,9.83
2019-05-16T04:34:31.531Z,11.15
2019-05-16T04:37:01.329Z,10.90
2019-05-16T04:39:31.817Z,10.43
2019-05-16T04:42:01.742Z,10.53
2019-05-16T04:44:31.281Z,11.43
2019-05-16T04:47:01.457Z,9.90
2019-05-16T04:49:31.930Z,10.68
2019-05-16T04:52:01.445Z,9.95
2019-05-16T04:54:30.995Z,10.40
2019-05-16T04:57:01.571Z,10.72
2019-05-16T04:59:31.385Z,10.75
2019-05-16T05:02:01.987Z,11.93
2019-05-16T05:04:31.707Z,15.60
2019-05-16T05:07:00.921Z,16.73
2019-05-16T05:09:31.665Z,18.67
2019-05-16T05:12:04.301Z,16.05
2019-05-16T05:14:32.296Z,25.92
2019-05-16T05:17:04.867Z,13.93
2019-05-16T05:19:33.054Z,13.35
2019-05-16T05:22:02.232Z,18.48
2019-05-16T05:24:31.669Z,18.10
2019-05-16T05:27:00.858Z,17.98
2019-05-16T05:29:30.742Z,15.43
2019-05-16T05:32:04.537Z,17.17
2019-05-16T05:34:31.090Z,19.10
2019-05-16T05:37:01.046Z,24.75
2019-05-16T05:39:30.496Z,23.47
2019-05-16T05:42:00.227Z,24.67
2019-05-16T05:44:30.703Z,21.80
2019-05-16T05:47:00.992Z,15.83
2019-05-16T05:49:30.304Z,17.67
2019-05-16T05:52:00.863Z,17.12
2019-05-16T05:54:30.865Z,17.32
2019-05-16T05:57:00.707Z,15.30
2019-05-16T05:59:30.622Z,14.93
2019-05-16T06:02:00.913Z,13.75
2019-05-16T06:04:30.775Z,21.85
2019-05-16T06:07:01.126Z,20.32
2019-05-16T06:09:33.163Z,17.90
2019-05-16T06:12:03.022Z,18.65
2019-05-16T06:14:32.147Z,16.62
2019-05-16T06:17:01.304Z,21.57
2019-05-16T06:19:30.510Z,16.90
2019-05-16T06:22:01.214Z,14.07
2019-05-16T06:24:30.740Z,15.15
2019-05-16T06:27:00.968Z,14.87
2019-05-16T06:29:31.026Z,15.38
2019-05-16T06:32:00.474Z,16.75
2019-05-16T06:34:30.204Z,15.50
2019-05-16T06:37:00.479Z,15.60
2019-05-16T06:39:41.277Z,14.68
2019-05-16T06:42:00.832Z,13.43
2019-05-16T06:44:30.816Z,15.65
2019-05-16T06:47:15.821Z,16.15
2019-05-16T06:49:31.231Z,14.70
2019-05-16T06:52:00.376Z,16.95
2019-05-16T06:54:29.986Z,16.87
2019-05-16T06:57:00.442Z,15.48
2019-05-16T06:59:29.891Z,15.88
2019-05-16T07:02:00.425Z,14.05
2019-05-16T07:04:30.595Z,15.68
2019-05-16T07:07:03.107Z,14.28
2019-05-16T07:09:30.835Z,16.75
2019-05-16T07:11:59.983Z,15.30
2019-05-16T07:14:31.322Z,14.23
2019-05-16T07:17:00.368Z,15.75
2019-05-16T07:19:30.171Z,16.35
2019-05-16T07:21:59.906Z,15.03
2019-05-16T07:24:30.634Z,15.45
2019-05-16T07:27:00.423Z,15.20
2019-05-16T07:29:30.883Z,14.85
2019-05-16T07:32:00.561Z,15.83
2019-05-16T07:34:31.121Z,14.10
2019-05-16T07:37:00.660Z,15.88
2019-05-16T07:39:30.718Z,15.10
2019-05-16T07:42:00.237Z,14.93
2019-05-16T07:44:30.909Z,14.83
2019-05-16T07:47:00.951Z,14.40
2019-05-16T07:49:30.637Z,14.83
2019-05-16T07:52:00.619Z,14.80
2019-05-16T07:54:34.269Z,14.98
2019-05-16T07:57:11.333Z,15.58
2019-05-16T07:59:32.176Z,14.87
2019-05-16T08:02:01.317Z,14.83
2019-05-16T08:04:30.656Z,15.58
2019-05-16T08:07:00.747Z,15.75
2019-05-16T08:09:30.724Z,14.15
2019-05-16T08:12:02.260Z,15.03
2019-05-16T08:14:34.909Z,14.20
2019-05-16T08:17:01.947Z,15.72
2019-05-16T08:19:31.094Z,13.90
2019-05-16T08:24:35.538Z,14.03
2019-05-16T08:27:02.172Z,13.83
2019-05-16T08:29:31.840Z,13.70
2019-05-16T08:32:02.095Z,13.43
2019-05-16T08:34:32.337Z,12.73
2019-05-16T08:37:01.662Z,13.48
2019-05-16T08:39:31.306Z,13.62
2019-05-16T08:42:07.817Z,13.40
2019-05-16T08:44:32.537Z,13.85
2019-05-16T08:47:06.211Z,13.90
2019-05-16T08:49:32.939Z,13.93
2019-05-16T08:52:02.084Z,12.53
2019-05-16T08:54:31.947Z,12.18
2019-05-16T08:57:20.855Z,13.22
2019-05-16T08:59:33.847Z,12.50
2019-05-16T09:02:03.970Z,11.95
2019-05-16T09:04:34.192Z,11.95
2019-05-16T09:07:03.795Z,12.65
2019-05-16T09:09:42.691Z,14.30
2019-05-16T09:10:40.105Z,14.47
2019-05-16T09:12:03.807Z,12.53
2019-05-16T09:14:38.775Z,12.37
2019-05-16T09:17:03.819Z,13.48
2019-05-16T09:19:32.960Z,14.95
2019-05-16T09:22:02.104Z,12.55
2019-05-16T09:24:31.251Z,11.73
2019-05-16T09:27:00.397Z,13.15
2019-05-16T09:29:29.548Z,12.18
2019-05-16T09:32:08.878Z,13.43
2019-05-16T09:34:29.550Z,12.90
2019-05-16T09:37:01.034Z,12.33
2019-05-16T09:39:29.593Z,12.58
2019-05-16T09:41:58.969Z,11.95
2019-05-16T09:44:28.214Z,12.30
2019-05-16T09:46:57.657Z,11.70
2019-05-16T09:49:26.801Z,12.37
2019-05-16T09:51:56.826Z,12.35
2019-05-16T09:54:27.354Z,12.13
2019-05-16T09:56:57.266Z,12.35
2019-05-16T09:59:26.782Z,12.37
2019-05-16T10:01:57.165Z,11.73
2019-05-16T10:04:26.803Z,13.55
2019-05-16T10:06:57.273Z,11.57
2019-05-16T10:09:40.293Z,12.88
2019-05-16T10:12:10.415Z,12.40
2019-05-16T10:14:28.415Z,11.57
2019-05-16T10:16:57.954Z,11.80
2019-05-16T10:19:27.682Z,11.78
2019-05-16T10:22:00.002Z,12.18
2019-05-16T10:24:27.690Z,12.03
2019-05-16T10:26:57.246Z,12.33
2019-05-16T10:29:27.509Z,11.75
2019-05-16T10:31:57.015Z,13.30
2019-05-16T10:34:26.583Z,11.97
2019-05-16T10:36:57.615Z,13.13
2019-05-16T10:39:27.329Z,11.55
2019-05-16T10:41:57.424Z,11.38
2019-05-16T10:44:28.125Z,11.30
2019-05-16T10:46:57.625Z,11.70
2019-05-16T10:49:36.941Z,11.57
2019-05-16T10:51:57.815Z,12.37
2019-05-16T10:54:27.568Z,11.35
2019-05-16T10:56:57.787Z,12.25
2019-05-16T11:01:59.720Z,12.50
2019-05-16T11:04:48.338Z,11.55
2019-05-16T11:07:00.006Z,11.78
2019-05-16T11:09:29.150Z,11.70
2019-05-16T11:11:58.949Z,11.03
2019-05-16T11:14:28.333Z,11.38
2019-05-16T11:16:58.203Z,11.45
2019-05-16T11:19:28.330Z,12.15
2019-05-16T11:21:57.892Z,11.83
2019-05-16T11:24:29.234Z,10.93
2019-05-16T11:26:58.032Z,11.63
2019-05-16T11:29:27.186Z,11.70
2019-05-16T11:31:57.395Z,11.22
2019-05-16T11:34:26.843Z,11.65
2019-05-16T11:36:56.978Z,11.60
2019-05-16T11:39:26.377Z,11.63
2019-05-16T11:41:57.089Z,11.08
2019-05-16T11:44:28.787Z,12.10
2019-05-16T11:46:57.687Z,12.07
2019-05-16T11:49:27.588Z,11.50
2019-05-16T11:51:57.913Z,11.80
2019-05-16T11:54:27.354Z,12.00
2019-05-16T11:56:57.128Z,11.88
2019-05-16T11:59:26.559Z,12.53
2019-05-16T12:01:55.705Z,11.35
2019-05-16T12:04:24.856Z,11.88
2019-05-16T12:06:54.008Z,12.63
2019-05-16T12:09:23.178Z,12.37
2019-05-16T12:11:59.737Z,13.25
2019-05-16T12:14:23.226Z,11.93
2019-05-16T12:16:52.372Z,12.63
2019-05-16T12:19:21.545Z,12.35
2019-05-16T12:21:50.704Z,11.88
2019-05-16T12:24:31.702Z,12.63
2019-05-16T12:26:50.735Z,12.35
2019-05-16T12:29:19.891Z,11.90
2019-05-16T12:31:58.219Z,12.58
2019-05-16T12:34:19.927Z,11.30
2019-05-16T12:36:49.073Z,12.58
2019-05-16T12:39:18.215Z,12.73
2019-05-16T12:41:49.101Z,12.98
2019-05-16T12:44:18.266Z,11.60
2019-05-16T12:46:47.635Z,11.65
2019-05-16T12:49:17.536Z,12.60
2019-05-16T12:51:47.099Z,12.20
2019-05-16T12:54:18.192Z,12.35
2019-05-16T12:56:48.177Z,12.65
2019-05-16T12:59:20.430Z,12.63
2019-05-16T13:01:48.589Z,12.28
2019-05-16T13:04:18.900Z,12.73
2019-05-16T13:06:48.664Z,12.10
2019-05-16T13:09:18.624Z,12.55
2019-05-16T13:11:48.209Z,11.30
2019-05-16T13:14:17.338Z,12.28
2019-05-16T13:16:47.273Z,12.65
2019-05-16T13:19:18.175Z,12.23
2019-05-16T13:21:47.630Z,12.90
2019-05-16T13:24:18.616Z,11.18
2019-05-16T13:26:48.075Z,12.88
2019-05-16T13:29:18.122Z,12.10
2019-05-16T13:31:48.187Z,12.43
2019-05-16T13:34:17.947Z,13.05
2019-05-16T13:36:47.633Z,12.60
2019-05-16T13:39:17.417Z,12.00
2019-05-16T13:41:46.510Z,12.18
2019-05-16T13:44:21.988Z,12.65
2019-05-16T13:46:46.868Z,12.82
2019-05-16T13:49:18.036Z,12.13
2019-05-16T13:51:47.192Z,12.28
2019-05-16T13:54:17.688Z,12.88
2019-05-16T13:56:48.382Z,12.28
2019-05-16T13:59:17.872Z,13.18
2019-05-16T14:01:47.025Z,12.90
2019-05-16T14:04:17.282Z,12.53
2019-05-16T14:06:47.557Z,12.73
2019-05-16T14:09:17.162Z,12.35
2019-05-16T14:11:46.581Z,12.40
2019-05-16T14:14:25.607Z,13.95
2019-05-16T14:16:47.930Z,13.32
2019-05-16T14:19:17.628Z,11.73
2019-05-16T14:21:47.816Z,12.25
2019-05-16T14:24:18.073Z,13.05
2019-05-16T14:26:47.543Z,12.50
2019-05-16T14:29:17.687Z,12.40
2019-05-16T14:31:47.498Z,12.35
2019-05-16T14:34:18.039Z,12.45
2019-05-16T14:36:47.548Z,12.35
2019-05-16T14:39:19.546Z,12.98
2019-05-16T14:41:47.596Z,13.45
2019-05-16T14:44:18.338Z,12.60
2019-05-16T14:46:47.769Z,13.20
2019-05-16T14:49:17.283Z,13.25
2019-05-16T14:51:47.623Z,12.85
2019-05-16T14:54:17.206Z,13.45
2019-05-16T14:56:47.580Z,12.25
2019-05-16T14:59:17.001Z,12.93
2019-05-16T15:01:47.299Z,12.50
2019-05-16T15:04:16.779Z,12.03
2019-05-16T15:06:47.036Z,12.50
2019-05-16T15:09:17.197Z,12.47
2019-05-16T15:11:47.222Z,11.88
2019-05-16T15:14:17.356Z,12.75
2019-05-16T15:16:51.538Z,12.43
2019-05-16T15:19:18.550Z,12.07
2019-05-16T15:21:47.896Z,11.95
2019-05-16T15:24:17.902Z,12.35
2019-05-16T15:26:47.629Z,12.00
2019-05-16T15:29:16.890Z,13.32
2019-05-16T15:31:46.741Z,11.83
2019-05-16T15:34:16.089Z,12.33
2019-05-16T15:36:46.637Z,11.68
2019-05-16T15:39:16.949Z,12.23
2019-05-16T15:41:46.529Z,13.50
2019-05-16T15:44:17.103Z,12.78
2019-05-16T15:46:47.918Z,12.15
2019-05-16T15:49:17.761Z,12.90
2019-05-16T15:51:47.737Z,11.38
2019-05-16T15:54:21.425Z,12.25
2019-05-16T15:56:50.613Z,11.38
2019-05-16T15:59:20.590Z,11.80
2019-05-16T16:01:55.389Z,12.45
2019-05-16T16:04:27.000Z,12.20
2019-05-16T16:06:55.653Z,11.30
2019-05-16T16:09:26.969Z,12.03
2019-05-16T16:11:56.588Z,12.18
2019-05-16T16:14:27.498Z,11.95
2019-05-16T16:16:57.079Z,12.35
2019-05-16T16:19:26.630Z,11.73
2019-05-16T16:21:57.829Z,12.45
2019-05-16T16:24:27.937Z,11.68
2019-05-16T16:26:57.532Z,11.22
2019-05-16T16:29:27.269Z,11.55
2019-05-16T16:31:56.930Z,11.85
2019-05-16T16:34:26.848Z,11.45
2019-05-16T16:36:56.991Z,11.33
2019-05-16T16:39:26.898Z,11.83
2019-05-16T16:41:56.940Z,11.53
2019-05-16T16:44:27.532Z,11.45
2019-05-16T16:46:57.295Z,11.35
2019-05-16T16:49:27.999Z,11.63
2019-05-16T16:51:57.431Z,11.18
2019-05-16T16:54:27.542Z,11.53
2019-05-16T16:56:57.089Z,10.88
2019-05-16T16:59:28.110Z,12.05
2019-05-16T17:01:57.344Z,11.00
2019-05-16T17:04:26.784Z,10.98
2019-05-16T17:06:56.880Z,11.10
2019-05-16T17:09:27.030Z,11.35
2019-05-16T17:11:57.137Z,11.55
2019-05-16T17:14:26.528Z,11.55
2019-05-16T17:16:57.532Z,15.72
2019-05-16T17:19:26.626Z,12.80
2019-05-16T17:22:11.599Z,12.78
2019-05-16T17:24:27.397Z,15.25
2019-05-16T17:26:57.727Z,14.73
2019-05-16T17:29:27.864Z,20.57
2019-05-16T17:32:05.834Z,19.37
2019-05-16T17:34:28.059Z,16.05
2019-05-16T17:36:57.248Z,17.00
2019-05-16T17:39:27.442Z,21.77
2019-05-16T17:41:57.967Z,18.23
2019-05-16T17:44:27.297Z,17.52
2019-05-16T17:46:57.555Z,21.48
2019-05-16T17:49:27.151Z,32.78
2019-05-16T17:51:56.353Z,20.15
2019-05-16T17:54:26.753Z,22.77
2019-05-16T17:56:56.731Z,22.27
2019-05-16T17:59:27.599Z,15.78
2019-05-16T18:01:57.047Z,20.08
2019-05-16T18:04:26.654Z,20.65
2019-05-16T18:06:57.676Z,27.58
2019-05-16T18:09:27.882Z,27.05
2019-05-16T18:11:57.500Z,24.43
2019-05-16T18:14:26.898Z,22.70
2019-05-16T18:16:59.649Z,24.25
2019-05-16T18:19:27.931Z,26.33
2019-05-16T18:21:57.195Z,22.45
2019-05-16T18:24:27.469Z,23.18
2019-05-16T18:26:57.201Z,27.60
2019-05-16T18:29:27.007Z,26.07
2019-05-16T18:31:56.234Z,22.37
2019-05-16T18:34:27.896Z,24.95
2019-05-16T18:36:57.240Z,27.50
2019-05-16T18:39:27.212Z,26.05
2019-05-16T18:41:56.616Z,26.62
2019-05-16T18:44:27.284Z,23.10
2019-05-16T18:47:06.717Z,21.87
2019-05-16T18:49:27.698Z,22.95
2019-05-16T18:51:57.086Z,17.87
2019-05-16T18:54:26.703Z,17.57
2019-05-16T18:56:57.851Z,19.62
2019-05-16T18:59:27.138Z,17.05
2019-05-16T19:01:56.329Z,13.55
2019-05-16T19:04:27.036Z,16.30
2019-05-16T19:06:56.614Z,14.98
2019-05-16T19:09:27.213Z,14.20
2019-05-16T19:11:56.561Z,13.88
2019-05-16T19:14:27.486Z,14.45
2019-05-16T19:16:56.788Z,13.85
2019-05-16T19:19:28.114Z,15.38
2019-05-16T19:21:59.344Z,15.00
2019-05-16T19:24:27.921Z,16.57
2019-05-16T19:26:57.425Z,15.08
2019-05-16T19:29:26.612Z,14.68
2019-05-16T19:31:57.079Z,12.90
2019-05-16T19:34:27.053Z,13.13
2019-05-16T19:36:57.464Z,12.75
2019-05-16T19:39:28.783Z,13.85
2019-05-16T19:41:57.637Z,12.75
2019-05-16T19:44:27.428Z,14.47
2019-05-16T19:46:57.374Z,12.88
2019-05-16T19:49:27.664Z,12.88
2019-05-16T19:51:56.840Z,15.38
2019-05-16T19:54:27.046Z,14.23
2019-05-16T19:56:56.654Z,13.00
2019-05-16T19:59:27.232Z,13.30
2019-05-16T20:01:57.036Z,12.80
2019-05-16T20:04:27.435Z,12.35
2019-05-16T20:06:57.325Z,13.62
2019-05-16T20:09:27.736Z,12.55
2019-05-16T20:11:57.398Z,12.25
2019-05-16T20:14:27.354Z,12.30
2019-05-16T20:16:56.770Z,12.95
2019-05-16T20:19:26.786Z,16.37
2019-05-16T20:21:58.032Z,18.67
2019-05-16T20:24:27.295Z,16.82
2019-05-16T20:26:57.107Z,13.65
2019-05-16T20:29:27.412Z,14.10
2019-05-16T20:31:59.460Z,14.80
2019-05-16T20:34:27.647Z,13.48
2019-05-16T20:36:57.296Z,13.85
2019-05-16T20:39:26.848Z,13.10
2019-05-16T20:41:59.333Z,13.93
2019-05-16T20:44:26.933Z,12.95
2019-05-16T20:46:56.754Z,13.00
2019-05-16T20:49:27.117Z,13.72
2019-05-16T20:51:57.794Z,13.10
2019-05-16T20:54:27.239Z,13.72
2019-05-16T20:56:57.421Z,15.18
2019-05-16T20:59:26.792Z,13.65
2019-05-16T21:01:57.504Z,13.15
2019-05-16T21:04:26.891Z,14.18
2019-05-16T21:07:03.375Z,13.98
2019-05-16T21:09:26.988Z,13.68
2019-05-16T21:11:56.963Z,14.60
2019-05-16T21:14:27.034Z,13.55
2019-05-16T21:16:57.754Z,13.70
2019-05-16T21:19:27.291Z,13.22
2019-05-16T21:21:56.703Z,15.00
2019-05-16T21:24:26.750Z,14.43
2019-05-16T21:26:56.286Z,14.70
2019-05-16T21:29:27.660Z,14.60
2019-05-16T21:31:56.627Z,13.48
2019-05-16T21:34:27.194Z,13.40
2019-05-16T21:37:00.933Z,13.45
2019-05-16T21:39:27.582Z,14.63
2019-05-16T21:41:59.404Z,13.58
2019-05-16T21:44:28.993Z,13.78
2019-05-16T21:46:58.611Z,14.03
2019-05-16T21:49:27.950Z,14.03
2019-05-16T21:51:57.195Z,13.93
2019-05-16T21:54:28.658Z,13.95
2019-05-16T21:56:57.242Z,13.15
2019-05-16T21:59:28.676Z,14.30
2019-05-16T22:01:57.320Z,14.00
2019-05-16T22:04:26.512Z,13.93
2019-05-16T22:06:56.676Z,14.33
2019-05-16T22:09:26.654Z,14.10
2019-05-16T22:11:57.375Z,14.05
2019-05-16T22:14:36.750Z,13.53
2019-05-16T22:17:06.456Z,13.35
2019-05-16T22:19:36.263Z,13.35
2019-05-16T22:22:07.420Z,13.43
2019-05-16T22:24:37.104Z,13.90
2019-05-16T22:27:06.907Z,13.83
2019-05-16T22:29:37.119Z,13.93
2019-05-16T22:32:07.082Z,13.13
2019-05-16T22:34:37.462Z,13.80
2019-05-16T22:37:06.680Z,14.03
2019-05-16T22:39:37.125Z,13.30
2019-05-16T22:42:08.999Z,12.68
2019-05-16T22:44:37.332Z,14.10
2019-05-16T22:47:06.762Z,13.18
2019-05-16T22:49:36.973Z,13.05
2019-05-16T22:52:06.762Z,13.53
2019-05-16T22:54:37.052Z,13.62
2019-05-16T22:57:06.759Z,14.65
2019-05-16T22:59:36.093Z,14.00
2019-05-16T23:02:11.365Z,12.50
2019-05-16T23:04:37.669Z,13.22
2019-05-16T23:07:07.127Z,13.03
2019-05-16T23:09:36.652Z,12.43
2019-05-16T23:12:07.044Z,13.88
2019-05-16T23:14:36.524Z,13.05
2019-05-16T23:17:06.751Z,12.78
2019-05-16T23:19:36.773Z,13.10
2019-05-16T23:22:07.524Z,11.93
2019-05-16T23:24:37.427Z,12.05
2019-05-16T23:27:07.071Z,13.13
2019-05-16T23:29:36.731Z,12.53
2019-05-16T23:32:07.359Z,12.43
2019-05-16T23:34:37.319Z,12.03
2019-05-16T23:37:06.686Z,12.93
2019-05-16T23:39:37.945Z,12.63
2019-05-16T23:42:06.990Z,12.23
2019-05-16T23:44:36.644Z,13.90
2019-05-16T23:47:07.117Z,12.45
2019-05-16T23:49:36.777Z,12.15
2019-05-16T23:52:07.513Z,11.10
2019-05-16T23:54:37.034Z,12.20
2019-05-16T23:57:06.682Z,11.40
2019-05-16T23:59:36.877Z,12.47
